CheckWX is a tool to help pilots better visualize weather data.  It is not intended as a substitute for an official pre-flight weather briefing.

05:31:13 UTC

DAAE METAR
Soummam Airport
Béjaïa, Algeria
Current

31 mins ago

DAAE 240500Z 35016KT 9999 SCT016 13/05 Q1026
Observed
Feb-24 @ 05:00 UTC
Wind
  • 350° at 16 KTS
Visibility
10,000+ meters
Flight Rules
VFR
Cloud Levels
  • Scattered at 1,600' AGL
Temperature
13°C / 55°F
Dewpoint
C / 41°F
Humidity
59%
Altimeter
30.3" Hg
Pressure
1025.92 hPa
Previous

2 hours ago

DAAE 240400Z 32015KT 9999 SCT016 13/09 Q1026
Observed
Feb-24 @ 04:00 UTC
Wind
  • 320° at 15 KTS
Visibility
10,000+ meters
Flight Rules
VFR
Cloud Levels
  • Scattered at 1,600' AGL
Temperature
13°C / 55°F
Dewpoint
C / 48°F
Humidity
77%
Altimeter
30.3" Hg
Pressure
1025.92 hPa
Previous

3 hours ago

DAAE 240300Z 06018KT 9999 SCT016 13/08 Q1025
Observed
Feb-24 @ 03:00 UTC
Wind
  • 060° at 18 KTS
Visibility
10,000+ meters
Flight Rules
VFR
Cloud Levels
  • Scattered at 1,600' AGL
Temperature
13°C / 55°F
Dewpoint
C / 46°F
Humidity
72%
Altimeter
30.27" Hg
Pressure
1024.92 hPa